createdAt,value
2023-03-28T00:00:25.956Z,51.79
2023-03-28T00:01:29.769Z,51.83
2023-03-28T00:02:32.014Z,51.77
2023-03-28T00:03:37.115Z,51.83
2023-03-28T00:04:41.046Z,51.87
2023-03-28T00:05:46.839Z,51.93
2023-03-28T00:06:52.127Z,51.83
2023-03-28T00:07:55.853Z,51.89
2023-03-28T00:08:58.086Z,51.84
2023-03-28T00:10:00.151Z,51.85
2023-03-28T00:11:12.977Z,51.86
2023-03-28T00:12:17.356Z,51.86
2023-03-28T00:13:22.109Z,51.86
2023-03-28T00:14:25.141Z,51.89
2023-03-28T00:15:27.375Z,51.86
2023-03-28T00:16:33.064Z,51.85
2023-03-28T00:17:37.186Z,51.83
2023-03-28T00:18:42.989Z,51.85
2023-03-28T00:20:01.097Z,51.90
2023-03-28T00:21:05.731Z,51.94
2023-03-28T00:22:10.392Z,51.96
2023-03-28T00:23:15.204Z,51.94
2023-03-28T00:25:33.389Z,51.96
2023-03-28T00:26:36.727Z,52.00
2023-03-28T00:27:38.897Z,52.04
2023-03-28T00:28:40.950Z,52.01
2023-03-28T00:29:48.700Z,51.99
2023-03-28T00:30:53.483Z,51.95
2023-03-28T00:31:55.833Z,51.93
2023-03-28T00:34:13.538Z,51.99
2023-03-28T00:35:17.900Z,52.05
2023-03-28T00:36:27.023Z,52.05
2023-03-28T00:37:34.467Z,52.11
2023-03-28T00:38:41.097Z,52.12
2023-03-28T00:39:44.394Z,52.09
2023-03-28T00:40:46.841Z,52.11
2023-03-28T00:41:49.144Z,52.15
2023-03-28T00:42:51.340Z,52.09
2023-03-28T00:43:55.011Z,52.11
2023-03-28T00:44:57.992Z,52.08
2023-03-28T00:46:09.089Z,52.08
2023-03-28T00:47:39.358Z,52.12
2023-03-28T00:48:45.233Z,52.05
2023-03-28T00:49:49.086Z,52.02
2023-03-28T00:50:52.496Z,51.99
2023-03-28T00:52:00.410Z,52.07
2023-03-28T00:53:17.772Z,52.11
2023-03-28T00:54:21.273Z,52.17
2023-03-28T00:56:37.393Z,52.23
2023-03-28T00:57:40.106Z,52.33
2023-03-28T00:58:44.139Z,52.28
2023-03-28T00:59:47.053Z,52.29
2023-03-28T01:00:50.040Z,52.31
2023-03-28T01:01:53.328Z,52.25
2023-03-28T01:02:56.575Z,52.22
2023-03-28T01:03:59.769Z,52.10
2023-03-28T01:05:02.580Z,52.16
2023-03-28T01:06:07.937Z,52.20
2023-03-28T01:07:12.550Z,52.14
2023-03-28T01:08:24.765Z,52.21
2023-03-28T01:09:28.859Z,52.21
2023-03-28T01:10:33.234Z,52.17
2023-03-28T01:11:37.354Z,52.24
2023-03-28T01:12:42.126Z,52.24
2023-03-28T01:13:49.360Z,52.24
2023-03-28T01:14:52.409Z,52.18
2023-03-28T01:15:55.307Z,52.25
2023-03-28T01:16:57.852Z,52.22
2023-03-28T01:18:01.343Z,52.22
2023-03-28T01:19:05.749Z,52.27
2023-03-28T01:20:32.466Z,52.27
2023-03-28T01:22:03.173Z,52.23
2023-03-28T01:24:40.776Z,52.35
2023-03-28T01:26:13.061Z,52.40
2023-03-28T01:27:31.687Z,52.38
2023-03-28T01:28:59.042Z,52.38
2023-03-28T01:30:13.061Z,52.37
2023-03-28T01:31:56.984Z,52.41
2023-03-28T01:35:09.406Z,52.45
2023-03-28T01:36:35.556Z,52.56
2023-03-28T01:37:47.615Z,52.55
2023-03-28T01:39:08.909Z,52.61
2023-03-28T01:41:43.245Z,52.55
2023-03-28T01:43:10.528Z,52.67
2023-03-28T01:44:22.456Z,52.69
2023-03-28T01:45:44.991Z,52.68
2023-03-28T01:47:02.742Z,52.67
2023-03-28T01:48:09.105Z,52.63
2023-03-28T01:50:49.559Z,52.68
2023-03-28T01:52:11.070Z,52.86
2023-03-28T01:53:29.198Z,52.83
2023-03-28T01:55:01.034Z,52.81
2023-03-28T01:58:13.279Z,52.78
2023-03-28T02:00:44.361Z,52.86
2023-03-28T02:01:53.364Z,52.96
2023-03-28T02:02:59.447Z,52.93
2023-03-28T02:04:20.377Z,52.93
2023-03-28T02:05:15.808Z,52.92
2023-03-28T02:06:20.614Z,52.92
2023-03-28T02:07:24.754Z,52.91
2023-03-28T02:08:40.463Z,52.89
2023-03-28T02:09:48.336Z,52.87
2023-03-28T02:11:02.585Z,52.93
2023-03-28T02:12:15.551Z,52.93
2023-03-28T02:14:53.422Z,52.97
2023-03-28T02:15:59.012Z,53.07
2023-03-28T02:17:06.453Z,53.10
2023-03-28T02:18:38.547Z,53.14
2023-03-28T02:20:03.362Z,53.10
2023-03-28T02:21:11.102Z,53.05
2023-03-28T02:23:44.492Z,53.05
2023-03-28T02:25:06.429Z,53.16
2023-03-28T02:26:24.593Z,53.17
2023-03-28T02:27:28.681Z,53.14
2023-03-28T02:28:36.438Z,53.23
2023-03-28T02:29:43.919Z,53.22
2023-03-28T02:30:48.348Z,53.19
2023-03-28T02:31:51.075Z,53.22
2023-03-28T02:33:05.215Z,53.26
2023-03-28T02:34:09.086Z,53.26
2023-03-28T02:35:11.328Z,53.21
2023-03-28T02:36:22.814Z,53.15
2023-03-28T02:37:37.740Z,53.19
2023-03-28T02:39:11.107Z,53.23
2023-03-28T02:40:48.119Z,53.18
2023-03-28T02:42:16.630Z,53.11
2023-03-28T02:45:16.468Z,53.11
2023-03-28T02:46:31.607Z,53.15
2023-03-28T02:47:40.790Z,53.23
2023-03-28T02:48:55.624Z,53.15
2023-03-28T02:52:38.957Z,53.26
2023-03-28T02:55:13.482Z,53.34
2023-03-28T02:56:20.802Z,53.38
2023-03-28T02:57:37.055Z,53.33
2023-03-28T03:00:18.322Z,53.29
2023-03-28T03:01:22.831Z,53.34
2023-03-28T03:02:25.292Z,53.37
2023-03-28T03:03:27.751Z,53.28
2023-03-28T03:04:30.924Z,53.31
2023-03-28T03:05:33.832Z,53.28
2023-03-28T03:06:36.370Z,53.30
2023-03-28T03:07:38.836Z,53.27
2023-03-28T03:08:40.900Z,53.30
2023-03-28T03:09:45.916Z,53.29
2023-03-28T03:10:48.201Z,53.31
2023-03-28T03:11:50.391Z,53.33
2023-03-28T03:12:53.066Z,53.25
2023-03-28T03:13:56.090Z,53.26
2023-03-28T03:14:58.727Z,53.30
2023-03-28T03:16:19.790Z,53.30
2023-03-28T03:17:22.694Z,53.30
2023-03-28T03:18:24.880Z,53.31
2023-03-28T03:19:27.527Z,53.34
2023-03-28T03:20:30.485Z,53.37
2023-03-28T03:21:32.658Z,53.83
2023-03-28T03:22:35.247Z,55.13
2023-03-28T03:23:37.425Z,57.37
2023-03-28T03:24:40.840Z,59.37
2023-03-28T03:25:43.534Z,60.11
2023-03-28T03:26:50.707Z,60.04
2023-03-28T03:27:53.004Z,59.99
2023-03-28T03:28:55.345Z,60.02
2023-03-28T03:29:59.487Z,60.92
2023-03-28T03:31:04.430Z,61.66
2023-03-28T03:32:23.204Z,61.15
2023-03-28T03:33:27.212Z,59.96
2023-03-28T03:34:32.272Z,59.11
2023-03-28T03:35:34.533Z,58.72
2023-03-28T03:36:39.006Z,58.02
2023-03-28T03:37:42.346Z,57.32
2023-03-28T03:38:46.516Z,57.05
2023-03-28T03:39:50.918Z,56.91
2023-03-28T03:40:55.291Z,56.58
2023-03-28T03:41:57.477Z,56.15
2023-03-28T03:43:00.017Z,56.01
2023-03-28T03:44:03.345Z,55.67
2023-03-28T03:45:07.295Z,55.57
2023-03-28T03:46:10.327Z,55.43
2023-03-28T03:47:14.614Z,55.31
2023-03-28T03:48:16.675Z,55.17
2023-03-28T03:49:18.849Z,55.02
2023-03-28T03:50:22.331Z,54.87
2023-03-28T03:51:24.600Z,54.88
2023-03-28T03:52:28.739Z,54.84
2023-03-28T03:53:33.863Z,54.75
2023-03-28T03:54:38.442Z,54.75
2023-03-28T03:55:41.526Z,54.68
2023-03-28T03:56:43.825Z,54.62
2023-03-28T03:57:46.710Z,54.62
2023-03-28T03:58:49.167Z,54.50
2023-03-28T03:59:51.862Z,54.55
2023-03-28T04:00:55.786Z,54.52
2023-03-28T04:02:00.443Z,54.44
2023-03-28T04:03:24.539Z,54.51
2023-03-28T04:04:22.726Z,54.48
2023-03-28T04:05:32.436Z,54.41
2023-03-28T04:06:37.339Z,54.41
2023-03-28T04:07:41.324Z,54.42
2023-03-28T04:09:54.526Z,54.37
2023-03-28T04:10:58.744Z,54.39
2023-03-28T04:12:02.205Z,54.36
2023-03-28T04:13:05.341Z,54.35
2023-03-28T04:14:08.815Z,54.33
2023-03-28T04:15:11.292Z,54.30
2023-03-28T04:17:28.477Z,54.18
2023-03-28T04:18:32.762Z,54.27
2023-03-28T04:19:35.980Z,54.29
2023-03-28T04:20:38.174Z,54.20
2023-03-28T04:21:46.171Z,54.28
2023-03-28T04:22:48.402Z,54.23
2023-03-28T04:23:52.441Z,54.20
2023-03-28T04:24:59.315Z,54.23
2023-03-28T04:26:03.614Z,54.24
2023-03-28T04:27:17.145Z,54.24
2023-03-28T04:28:22.563Z,54.21
2023-03-28T04:29:30.419Z,54.28
2023-03-28T04:31:50.801Z,54.28
2023-03-28T04:33:04.028Z,54.35
2023-03-28T04:34:08.212Z,54.33
2023-03-28T04:35:12.213Z,54.31
2023-03-28T04:36:15.580Z,54.33
2023-03-28T04:37:19.672Z,54.31
2023-03-28T04:38:27.972Z,54.26
2023-03-28T04:39:34.212Z,54.29
2023-03-28T04:40:55.621Z,54.22
2023-03-28T04:41:59.820Z,54.16
2023-03-28T04:43:04.150Z,54.18
2023-03-28T04:44:08.599Z,54.21
2023-03-28T04:45:12.673Z,54.17
2023-03-28T04:46:16.417Z,54.21
2023-03-28T04:47:19.390Z,54.16
2023-03-28T04:48:23.012Z,54.13
2023-03-28T04:49:25.875Z,54.16
2023-03-28T04:50:28.201Z,54.16
2023-03-28T04:51:31.591Z,54.16
2023-03-28T04:52:34.936Z,54.12
2023-03-28T04:53:37.081Z,54.06
2023-03-28T04:54:57.900Z,54.11
2023-03-28T04:56:00.701Z,54.12
2023-03-28T04:57:05.078Z,54.03
2023-03-28T04:58:19.900Z,54.05
2023-03-28T04:59:23.035Z,54.01
2023-03-28T05:00:27.624Z,53.99
2023-03-28T05:01:32.845Z,53.94
2023-03-28T05:02:38.016Z,53.95
2023-03-28T05:03:41.389Z,53.96
2023-03-28T05:04:44.785Z,53.91
2023-03-28T05:05:49.310Z,53.91
2023-03-28T05:06:53.554Z,53.89
2023-03-28T05:07:59.715Z,53.88
2023-03-28T05:09:02.117Z,53.88
2023-03-28T05:10:07.140Z,53.88
2023-03-28T05:11:11.217Z,53.87
2023-03-28T05:12:14.517Z,53.85
2023-03-28T05:13:30.688Z,53.83
2023-03-28T05:14:37.755Z,53.81
2023-03-28T05:15:42.596Z,53.77
2023-03-28T05:16:59.340Z,53.83
2023-03-28T05:18:21.577Z,53.75
2023-03-28T05:19:23.634Z,53.72
2023-03-28T05:20:32.218Z,53.69
2023-03-28T05:21:35.966Z,53.74
2023-03-28T05:22:38.207Z,53.74
2023-03-28T05:23:40.954Z,53.79
2023-03-28T05:24:45.041Z,53.77
2023-03-28T05:25:51.075Z,53.78
2023-03-28T05:26:53.799Z,53.75
2023-03-28T05:27:58.334Z,53.77
2023-03-28T05:29:01.165Z,53.73
2023-03-28T05:31:22.321Z,53.69
2023-03-28T05:32:28.412Z,53.76
2023-03-28T05:33:32.395Z,53.80
2023-03-28T05:34:35.050Z,53.71
2023-03-28T05:35:38.237Z,53.68
2023-03-28T05:36:41.071Z,53.67
2023-03-28T05:37:46.951Z,53.66
2023-03-28T05:38:49.979Z,53.66
2023-03-28T05:39:52.740Z,53.61
2023-03-28T05:40:55.208Z,53.65
2023-03-28T05:41:59.258Z,53.61
2023-03-28T05:43:01.466Z,53.59
2023-03-28T05:44:03.942Z,53.59
2023-03-28T05:45:09.898Z,53.64
2023-03-28T05:46:15.562Z,53.59
2023-03-28T05:47:19.392Z,53.63
2023-03-28T05:48:21.729Z,53.62
2023-03-28T05:49:24.797Z,53.66
2023-03-28T05:50:27.884Z,53.66
2023-03-28T05:51:32.567Z,53.67
2023-03-28T05:52:57.293Z,53.67
2023-03-28T05:53:59.510Z,53.66
2023-03-28T05:55:01.962Z,53.59
2023-03-28T05:56:08.289Z,53.63
2023-03-28T05:57:10.482Z,53.61
2023-03-28T05:58:13.373Z,53.63
2023-03-28T05:59:16.237Z,53.63
2023-03-28T06:00:20.683Z,53.61
2023-03-28T06:01:24.955Z,53.63
2023-03-28T06:02:28.855Z,53.58
2023-03-28T06:03:33.011Z,53.57
2023-03-28T06:04:37.009Z,53.54
2023-03-28T06:05:39.744Z,53.53
2023-03-28T06:06:48.940Z,53.60
2023-03-28T06:07:53.066Z,53.54
2023-03-28T06:08:56.481Z,53.58
2023-03-28T06:09:59.205Z,53.56
2023-03-28T06:11:02.584Z,53.54
2023-03-28T06:12:21.916Z,53.48
2023-03-28T06:13:25.965Z,53.46
2023-03-28T06:14:48.242Z,53.42
2023-03-28T06:15:59.106Z,53.44
2023-03-28T06:17:06.675Z,53.36
2023-03-28T06:18:11.301Z,53.41
2023-03-28T06:19:18.321Z,53.36
2023-03-28T06:20:23.074Z,53.36
2023-03-28T06:21:27.337Z,53.41
2023-03-28T06:22:30.818Z,53.44
2023-03-28T06:23:34.678Z,53.44
2023-03-28T06:24:37.669Z,53.37
2023-03-28T06:25:39.872Z,53.35
2023-03-28T06:26:43.128Z,53.36
2023-03-28T06:27:48.158Z,53.33
2023-03-28T06:28:50.476Z,53.28
2023-03-28T06:29:54.591Z,53.40
2023-03-28T06:30:57.664Z,53.38
2023-03-28T06:32:01.371Z,53.38
2023-03-28T06:34:12.881Z,53.46
2023-03-28T06:35:30.453Z,53.49
2023-03-28T06:36:32.961Z,53.53
2023-03-28T06:37:35.989Z,53.42
2023-03-28T06:38:40.242Z,53.38
2023-03-28T06:39:44.086Z,53.40
2023-03-28T06:41:55.237Z,53.31
2023-03-28T06:42:59.425Z,53.34
2023-03-28T06:44:04.648Z,53.39
2023-03-28T06:45:25.231Z,53.35
2023-03-28T06:46:29.493Z,53.23
2023-03-28T06:47:31.760Z,53.17
2023-03-28T06:48:36.256Z,53.30
2023-03-28T06:50:51.938Z,53.32
2023-03-28T06:51:55.955Z,53.29
2023-03-28T06:52:58.393Z,53.27
2023-03-28T06:54:01.474Z,53.18
2023-03-28T06:55:06.415Z,53.13
2023-03-28T06:56:11.154Z,53.12
2023-03-28T06:57:14.390Z,53.12
2023-03-28T06:58:18.573Z,53.19
2023-03-28T06:59:22.609Z,52.94
2023-03-28T07:00:26.859Z,52.86
2023-03-28T07:01:48.332Z,52.88
2023-03-28T07:02:53.518Z,52.86
2023-03-28T07:05:08.470Z,52.74
2023-03-28T07:06:12.124Z,52.64
2023-03-28T07:07:14.239Z,52.58
2023-03-28T07:08:18.072Z,52.52
2023-03-28T07:09:30.828Z,52.30
2023-03-28T07:10:40.011Z,52.40
2023-03-28T07:11:42.734Z,52.23
2023-03-28T07:12:46.962Z,52.26
2023-03-28T07:13:50.826Z,52.26
2023-03-28T07:14:55.769Z,52.20
2023-03-28T07:16:06.075Z,52.02
2023-03-28T07:17:08.694Z,51.88
2023-03-28T07:18:14.159Z,51.95
2023-03-28T07:19:16.520Z,51.92
2023-03-28T07:20:23.893Z,51.74
2023-03-28T07:21:26.440Z,51.68
2023-03-28T07:22:30.572Z,51.53
2023-03-28T07:23:32.887Z,51.53
2023-03-28T07:24:36.421Z,51.45
2023-03-28T07:25:43.505Z,51.43
2023-03-28T07:26:45.783Z,51.42
2023-03-28T07:27:48.086Z,51.58
2023-03-28T07:28:50.390Z,51.41
2023-03-28T07:29:53.646Z,51.29
2023-03-28T07:30:57.927Z,51.33
2023-03-28T07:32:09.100Z,51.28
2023-03-28T07:33:19.477Z,51.22
2023-03-28T07:34:17.854Z,51.00
2023-03-28T07:35:23.954Z,50.94
2023-03-28T07:36:28.665Z,50.86
2023-03-28T07:37:34.154Z,50.85
2023-03-28T07:38:45.424Z,50.94
2023-03-28T07:39:49.702Z,50.85
2023-03-28T07:40:54.811Z,50.72
2023-03-28T07:41:57.160Z,50.78
2023-03-28T07:43:02.396Z,50.75
2023-03-28T07:44:04.725Z,50.65
2023-03-28T07:45:08.898Z,50.63
2023-03-28T07:46:16.290Z,50.60
2023-03-28T07:47:18.572Z,50.61
2023-03-28T07:48:20.952Z,50.59
2023-03-28T07:49:23.027Z,50.53
2023-03-28T07:50:26.764Z,50.60
2023-03-28T07:51:30.993Z,50.55
2023-03-28T07:52:35.554Z,50.54
2023-03-28T07:53:38.136Z,50.57
2023-03-28T07:54:40.491Z,50.61
2023-03-28T07:55:54.325Z,50.58
2023-03-28T07:56:54.178Z,50.51
2023-03-28T07:57:59.979Z,50.52
2023-03-28T07:59:06.357Z,50.54
2023-03-28T08:00:29.873Z,50.50
2023-03-28T08:02:10.636Z,50.53
2023-03-28T08:03:19.464Z,50.42
2023-03-28T08:04:22.837Z,50.52
2023-03-28T08:05:42.720Z,50.49
2023-03-28T08:06:45.286Z,50.48
2023-03-28T08:07:47.503Z,50.40
2023-03-28T08:08:49.730Z,50.41
2023-03-28T08:09:58.394Z,50.52
2023-03-28T08:11:03.869Z,50.78
2023-03-28T08:12:06.956Z,51.21
2023-03-28T08:13:09.255Z,51.31
2023-03-28T08:14:16.155Z,51.24
2023-03-28T08:15:18.470Z,51.51
2023-03-28T08:16:22.584Z,51.82
2023-03-28T08:17:29.481Z,52.10
2023-03-28T08:18:34.221Z,52.15
2023-03-28T08:19:37.725Z,52.37
2023-03-28T08:20:50.462Z,52.23
2023-03-28T08:21:56.264Z,52.42
2023-03-28T08:23:00.097Z,52.71
2023-03-28T08:24:34.917Z,52.58
2023-03-28T08:25:29.011Z,53.03
2023-03-28T08:26:32.075Z,53.03
2023-03-28T08:27:36.000Z,52.99
2023-03-28T08:28:40.029Z,52.91
2023-03-28T08:29:42.690Z,53.30
2023-03-28T08:30:45.320Z,53.13
2023-03-28T08:31:48.047Z,53.20
2023-03-28T08:32:54.972Z,53.16
2023-03-28T08:34:00.476Z,53.06
2023-03-28T08:36:20.316Z,52.86
2023-03-28T08:37:22.668Z,52.97
2023-03-28T08:38:24.997Z,53.08
2023-03-28T08:39:30.475Z,52.89
2023-03-28T08:40:37.725Z,52.86
2023-03-28T08:41:47.506Z,53.07
2023-03-28T08:44:29.396Z,52.86
2023-03-28T08:45:52.886Z,52.71
2023-03-28T08:47:13.127Z,53.05
2023-03-28T08:48:30.532Z,53.02
2023-03-28T08:49:38.219Z,53.07
2023-03-28T08:50:53.221Z,53.14
2023-03-28T08:52:01.289Z,53.20
2023-03-28T08:53:14.469Z,53.24
2023-03-28T08:54:32.832Z,53.20
2023-03-28T08:55:42.730Z,53.29
2023-03-28T08:56:51.893Z,53.41
2023-03-28T08:57:55.163Z,53.44
2023-03-28T09:00:35.086Z,53.59
2023-03-28T09:01:39.006Z,53.76
2023-03-28T09:02:43.299Z,53.98
2023-03-28T09:03:48.893Z,54.04
2023-03-28T09:05:05.130Z,54.29
2023-03-28T09:06:08.266Z,54.40
2023-03-28T09:07:35.236Z,54.49
2023-03-28T09:09:07.134Z,54.57
2023-03-28T09:10:31.074Z,54.71
2023-03-28T09:11:46.959Z,54.80
2023-03-28T09:12:58.687Z,54.97
2023-03-28T09:14:31.827Z,55.04
2023-03-28T09:16:04.065Z,55.09
2023-03-28T09:17:25.597Z,55.14
2023-03-28T09:18:56.498Z,55.20
2023-03-28T09:21:50.372Z,55.43
2023-03-28T09:24:42.456Z,55.57
2023-03-28T09:27:28.621Z,55.56
2023-03-28T09:28:55.793Z,55.73
2023-03-28T09:31:14.378Z,55.58
2023-03-28T09:32:24.537Z,55.56
2023-03-28T09:33:33.814Z,55.69
2023-03-28T09:34:39.535Z,55.61
2023-03-28T09:35:46.646Z,55.67
2023-03-28T09:36:55.526Z,55.61
2023-03-28T09:38:05.095Z,55.61
2023-03-28T09:39:30.541Z,55.57
2023-03-28T09:40:44.739Z,55.73
2023-03-28T09:42:15.136Z,55.91
2023-03-28T09:46:00.020Z,56.23
2023-03-28T09:47:12.670Z,56.34
2023-03-28T09:49:34.395Z,56.39
2023-03-28T09:50:39.980Z,56.42
2023-03-28T09:51:43.358Z,56.49
2023-03-28T09:52:48.601Z,56.48
2023-03-28T09:53:53.004Z,56.68
2023-03-28T09:54:57.167Z,56.58
2023-03-28T09:57:16.515Z,56.59
2023-03-28T09:58:23.148Z,56.75
2023-03-28T09:59:40.203Z,56.73
2023-03-28T10:02:04.278Z,56.88
2023-03-28T10:03:22.970Z,56.88
2023-03-28T10:04:35.866Z,56.99
2023-03-28T10:05:52.895Z,56.92
2023-03-28T10:07:13.193Z,56.91
2023-03-28T10:08:37.621Z,56.89
2023-03-28T10:09:54.976Z,56.85
2023-03-28T10:11:02.944Z,56.91
2023-03-28T10:12:11.209Z,56.89
2023-03-28T10:13:13.722Z,56.96
2023-03-28T10:14:37.886Z,56.89
2023-03-28T10:15:48.195Z,57.00
2023-03-28T10:17:22.649Z,56.97
2023-03-28T10:18:27.738Z,57.05
2023-03-28T10:20:49.100Z,57.16
2023-03-28T10:21:53.635Z,57.27
2023-03-28T10:24:16.243Z,57.38
2023-03-28T10:26:41.811Z,57.36
2023-03-28T10:27:48.404Z,57.46
2023-03-28T10:28:52.668Z,57.53
2023-03-28T10:29:58.688Z,57.40
2023-03-28T10:31:05.945Z,57.47
2023-03-28T10:33:29.853Z,57.41
2023-03-28T10:36:15.080Z,57.57
2023-03-28T10:37:27.189Z,57.58
2023-03-28T10:41:26.272Z,57.53
2023-03-28T10:42:50.207Z,57.58
2023-03-28T10:43:56.852Z,57.46
2023-03-28T10:46:49.770Z,57.37
2023-03-28T10:47:59.481Z,57.44
2023-03-28T10:49:05.322Z,57.52
2023-03-28T10:51:34.008Z,57.47
2023-03-28T10:52:43.695Z,57.50
2023-03-28T10:54:08.101Z,57.52
2023-03-28T10:55:17.775Z,57.48
2023-03-28T10:56:50.804Z,57.43
2023-03-28T10:58:05.999Z,57.44
2023-03-28T10:59:13.788Z,57.48
2023-03-28T11:02:01.991Z,57.50
2023-03-28T11:03:08.624Z,57.80
2023-03-28T11:04:33.438Z,57.76
2023-03-28T11:06:59.869Z,57.75
2023-03-28T11:09:51.229Z,57.79
2023-03-28T11:11:24.432Z,57.83
2023-03-28T11:12:53.985Z,57.87
2023-03-28T11:13:54.111Z,57.85
2023-03-28T11:15:24.874Z,57.75
2023-03-28T11:17:01.461Z,57.74
2023-03-28T11:18:37.397Z,57.75
2023-03-28T11:19:58.374Z,57.72
2023-03-28T11:21:21.343Z,57.68
2023-03-28T11:24:04.689Z,57.63
2023-03-28T11:25:33.775Z,57.80
2023-03-28T11:27:16.022Z,57.73
2023-03-28T11:28:25.135Z,57.70
2023-03-28T11:29:53.396Z,57.81
2023-03-28T11:31:01.043Z,57.75
2023-03-28T11:32:30.562Z,57.72
2023-03-28T11:34:11.786Z,57.80
2023-03-28T11:35:29.414Z,57.82
2023-03-28T11:36:52.368Z,57.86
2023-03-28T11:38:04.578Z,57.86
2023-03-28T11:39:21.522Z,57.83
2023-03-28T11:40:47.439Z,57.87
2023-03-28T11:41:52.758Z,58.01
2023-03-28T11:43:12.836Z,58.02
2023-03-28T11:45:52.178Z,58.06
2023-03-28T11:47:04.878Z,58.05
2023-03-28T11:48:21.777Z,58.19
2023-03-28T11:49:27.778Z,58.10
2023-03-28T11:51:03.479Z,58.19
2023-03-28T11:52:26.652Z,58.32
2023-03-28T11:53:45.978Z,58.23
2023-03-28T11:55:08.336Z,58.18
2023-03-28T11:59:22.736Z,58.43
2023-03-28T12:00:42.497Z,58.42
2023-03-28T12:01:50.160Z,58.40
2023-03-28T12:02:59.423Z,58.38
2023-03-28T12:05:50.979Z,58.40
2023-03-28T12:07:06.553Z,58.48
2023-03-28T12:08:32.265Z,58.46
2023-03-28T12:10:10.621Z,58.43
2023-03-28T12:12:45.652Z,58.37
2023-03-28T12:14:01.335Z,58.52
2023-03-28T12:16:19.326Z,58.53
2023-03-28T12:17:29.312Z,58.66
2023-03-28T12:18:40.076Z,58.57
2023-03-28T12:19:46.006Z,58.56
2023-03-28T12:21:14.802Z,58.63
2023-03-28T12:24:08.589Z,58.56
2023-03-28T12:25:26.179Z,58.73
2023-03-28T12:26:50.062Z,58.60
2023-03-28T12:28:03.045Z,58.68
2023-03-28T12:30:47.741Z,58.78
2023-03-28T12:31:53.973Z,58.77
2023-03-28T12:33:02.503Z,58.74
2023-03-28T12:35:37.451Z,58.77
2023-03-28T12:38:26.000Z,58.81
2023-03-28T12:39:37.358Z,58.77
2023-03-28T12:41:02.695Z,58.68
2023-03-28T12:42:08.320Z,58.63
2023-03-28T12:43:13.870Z,58.67
2023-03-28T12:44:26.545Z,58.66
2023-03-28T12:46:48.956Z,58.62
2023-03-28T12:47:55.567Z,58.72
2023-03-28T12:50:32.703Z,58.71
2023-03-28T12:52:58.770Z,58.67
2023-03-28T12:54:18.030Z,58.74
2023-03-28T12:55:29.936Z,58.71
2023-03-28T12:57:47.140Z,58.57
2023-03-28T12:58:54.417Z,58.67
2023-03-28T13:00:22.230Z,58.57
2023-03-28T13:01:30.521Z,58.50
2023-03-28T13:02:56.047Z,58.50
2023-03-28T13:04:08.680Z,58.43
2023-03-28T13:08:34.710Z,58.43
2023-03-28T13:10:06.357Z,58.41
2023-03-28T13:11:21.212Z,58.39
2023-03-28T13:12:36.133Z,58.26
2023-03-28T13:13:59.303Z,58.25
2023-03-28T13:15:17.093Z,58.25
2023-03-28T13:16:24.945Z,58.22
2023-03-28T13:17:30.115Z,58.20
2023-03-28T13:18:36.122Z,58.18
2023-03-28T13:19:46.968Z,58.22
2023-03-28T13:22:01.637Z,58.22
2023-03-28T13:23:09.729Z,58.35
2023-03-28T13:24:27.753Z,58.34
2023-03-28T13:25:37.903Z,58.30
2023-03-28T13:27:01.669Z,58.28
2023-03-28T13:28:13.736Z,58.28
2023-03-28T13:29:16.594Z,58.24
2023-03-28T13:31:34.316Z,58.25
2023-03-28T13:32:41.568Z,58.26
2023-03-28T13:35:05.698Z,58.24
2023-03-28T13:36:11.492Z,58.29
2023-03-28T13:37:22.566Z,58.29
2023-03-28T13:38:33.342Z,58.28
2023-03-28T13:39:35.599Z,58.25
2023-03-28T13:40:47.783Z,58.24
2023-03-28T13:41:53.558Z,58.24
2023-03-28T13:43:00.527Z,58.16
2023-03-28T13:44:12.480Z,58.19
2023-03-28T13:46:34.532Z,58.12
2023-03-28T13:47:39.430Z,58.24
2023-03-28T13:48:53.984Z,58.25
2023-03-28T13:50:20.881Z,58.16
2023-03-28T13:51:25.840Z,58.18
2023-03-28T13:52:28.514Z,58.25
2023-03-28T13:53:44.293Z,58.27
2023-03-28T13:54:35.654Z,58.23
2023-03-28T13:55:37.956Z,58.23
2023-03-28T13:56:43.208Z,58.23
2023-03-28T13:57:45.908Z,58.22
2023-03-28T13:58:51.602Z,58.22
2023-03-28T14:03:21.022Z,58.24
2023-03-28T14:04:32.691Z,58.28
2023-03-28T14:06:40.955Z,58.24
2023-03-28T14:09:58.312Z,58.30
2023-03-28T14:11:02.837Z,58.26
2023-03-28T14:12:07.837Z,58.27
2023-03-28T14:14:35.701Z,58.32
2023-03-28T14:15:39.938Z,58.44
2023-03-28T14:16:46.837Z,58.43
2023-03-28T14:17:51.069Z,58.50
2023-03-28T14:18:54.602Z,58.53
2023-03-28T14:20:05.693Z,58.55
2023-03-28T14:21:08.540Z,58.57
2023-03-28T14:23:32.601Z,58.64
2023-03-28T14:24:36.083Z,58.70
2023-03-28T14:25:38.940Z,58.73
2023-03-28T14:26:42.047Z,58.77
2023-03-28T14:27:52.501Z,58.81
2023-03-28T14:29:07.187Z,58.88
2023-03-28T14:30:28.226Z,58.88
2023-03-28T14:31:35.863Z,58.91
2023-03-28T14:32:54.435Z,58.94
2023-03-28T14:33:57.997Z,59.07
2023-03-28T14:35:19.824Z,58.98
2023-03-28T14:36:22.017Z,59.00
2023-03-28T14:37:25.121Z,59.07
2023-03-28T14:38:30.257Z,59.07
2023-03-28T14:39:37.184Z,59.20
2023-03-28T14:40:42.003Z,59.27
2023-03-28T14:41:44.094Z,59.31
2023-03-28T14:42:54.709Z,59.51
2023-03-28T14:43:57.732Z,59.51
2023-03-28T14:44:59.864Z,59.75
2023-03-28T14:46:05.265Z,59.98
2023-03-28T14:47:10.714Z,59.78
2023-03-28T14:49:26.377Z,60.60
2023-03-28T14:50:31.534Z,60.37
2023-03-28T14:52:48.813Z,60.72
2023-03-28T14:53:51.813Z,60.46
2023-03-28T14:54:54.856Z,60.18
2023-03-28T14:57:17.668Z,60.28
2023-03-28T14:58:21.515Z,60.65
2023-03-28T14:59:27.358Z,60.63
2023-03-28T15:00:39.690Z,60.32
2023-03-28T15:01:44.108Z,60.46
2023-03-28T15:02:47.007Z,60.35
2023-03-28T15:03:58.373Z,60.06
2023-03-28T15:05:07.416Z,60.33
2023-03-28T15:06:18.737Z,60.43
2023-03-28T15:07:28.495Z,60.83
2023-03-28T15:08:38.748Z,60.73
2023-03-28T15:09:41.509Z,60.88
2023-03-28T15:10:49.995Z,60.99
2023-03-28T15:11:52.091Z,61.07
2023-03-28T15:13:15.200Z,61.19
2023-03-28T15:15:36.678Z,60.96
2023-03-28T15:16:41.427Z,61.19
2023-03-28T15:17:44.774Z,61.40
2023-03-28T15:20:01.331Z,61.52
2023-03-28T15:21:06.284Z,61.61
2023-03-28T15:22:13.789Z,61.53
2023-03-28T15:23:25.943Z,61.76
2023-03-28T15:24:28.512Z,61.78
2023-03-28T15:25:31.528Z,61.47
2023-03-28T15:26:36.703Z,61.24
2023-03-28T15:27:40.195Z,60.90
2023-03-28T15:28:42.865Z,61.28
2023-03-28T15:29:44.924Z,61.13
2023-03-28T15:30:48.917Z,61.31
2023-03-28T15:31:54.140Z,61.74
2023-03-28T15:34:13.028Z,61.27
2023-03-28T15:35:37.664Z,61.37
2023-03-28T15:37:55.483Z,63.77
2023-03-28T15:39:19.768Z,62.81
2023-03-28T15:40:24.167Z,59.60
2023-03-28T15:42:57.828Z,57.38
2023-03-28T15:44:28.620Z,56.39
2023-03-28T15:45:39.695Z,56.61
2023-03-28T15:46:42.596Z,55.83
2023-03-28T15:47:47.048Z,55.25
2023-03-28T15:48:49.273Z,55.26
2023-03-28T15:50:02.792Z,55.86
2023-03-28T15:51:09.723Z,56.13
2023-03-28T15:52:21.254Z,56.33
2023-03-28T15:53:26.821Z,56.37
2023-03-28T15:54:31.772Z,56.51
2023-03-28T15:55:34.456Z,56.64
2023-03-28T15:56:36.855Z,56.61
2023-03-28T15:57:38.985Z,56.03
2023-03-28T15:58:44.847Z,55.90
2023-03-28T15:59:50.232Z,56.05
2023-03-28T16:00:54.125Z,56.02
2023-03-28T16:03:31.506Z,56.32
2023-03-28T16:04:34.182Z,56.69
2023-03-28T16:05:37.760Z,56.37
2023-03-28T16:06:42.721Z,56.29
2023-03-28T16:07:47.844Z,56.16
2023-03-28T16:08:59.699Z,56.30
2023-03-28T16:10:02.731Z,57.13
2023-03-28T16:11:10.483Z,57.05
2023-03-28T16:12:14.199Z,56.99
2023-03-28T16:13:20.294Z,57.08
2023-03-28T16:15:45.655Z,56.25
2023-03-28T16:16:54.698Z,56.60
2023-03-28T16:17:58.713Z,56.94
2023-03-28T16:20:20.827Z,56.71
2023-03-28T16:21:25.133Z,56.84
2023-03-28T16:22:31.074Z,56.94
2023-03-28T16:23:34.358Z,56.64
2023-03-28T16:24:38.626Z,57.04
2023-03-28T16:25:44.940Z,57.53
2023-03-28T16:26:49.612Z,57.20
2023-03-28T16:27:51.940Z,57.24
2023-03-28T16:28:54.026Z,56.40
2023-03-28T16:29:57.108Z,56.38
2023-03-28T16:30:59.763Z,56.29
2023-03-28T16:32:02.489Z,56.77
2023-03-28T16:33:06.185Z,56.79
2023-03-28T16:34:10.190Z,56.60
2023-03-28T16:35:14.062Z,56.57
2023-03-28T16:36:16.231Z,57.07
2023-03-28T16:37:19.413Z,57.44
2023-03-28T16:38:22.429Z,56.91
2023-03-28T16:39:24.575Z,57.13
2023-03-28T16:40:29.454Z,57.11
2023-03-28T16:41:32.876Z,56.85
2023-03-28T16:42:35.670Z,57.31